Terminal Aerodrome Forecast
Issued by NWS

Home | Current Version | Previous Version | Text Only | Print | Product List | Glossary On
Versions: 1 2 3 4 5 6 7 8 9 10 11 12 13 14 15 16 17 18 19 20 21 22 23 24 25 26
000
FTUS45 KSLC 301120
TAFLGU
TAF
KLGU 301120Z 3012/3112 17006KT P6SM FEW100 BKN150
     FM301500 20008KT P6SM BKN100 BKN120
     FM301700 24013G23KT P6SM VCSH BKN080 BKN120
     FM310100 33010KT P6SM SCT080 BKN120
     FM310700 VRB05KT P6SM VCSH BKN080=

USA.gov is the U.S. government's official web portal to all federal, state and local government web resources and services.